Hauptseite
METAR-TAF:

METAR-TAF

Flughäfen :

Militärflugplatz Deelen

Arnheim, Niederlande

Breite: 52-04N, Länge: 005-53E, Höhe: 48 m

Beobachtung

Neuester Wetterbericht von vor 19 Minuten, um 04:25 UTC
Wind 4 kt aus Ost/Südost, variierte zwischen Ost und Süd
Temperatur 1°C
Luftfeuchtigkeit 86%
Luftdruck 1022 hPa
Sichtweite: 5000 m
feuchter Dunst

METAR: EHDL 170425Z AUTO 12004KT 090V180 5000 BR NCD 01/M01 Q1022 WHT

Zeit: 05:44 (04:44 UTC)


TAF: fehlend

Wetterbeobachtungen und Prognosen von mehr als 4000 Flughäfen (METAR und TAF Bericht).

Die verfügbaren Stationen werden durch gelbe und rote Markierungen auf der Karte dargestellt.

Führen Sie die Maus auf sie, um den Namen der Station zu sehen.

Darauf klicken, um die Beobachtung von Wetterbeobachtungen und Prognosen zu sehen.

Um die Karte zu ändern : klicken Sie auf den grünen Tasten mit einem schwarzen Kreuz Zum Vergrößern, auf den grünen Button mit einem Gedankenstrich zu verkleinern, oder auf die grünen Pfeile für benachbarte Karten.


METAR-TAF: